Time;durP1;ratioP1;P1;durP2;ratioP2;P2;SDS_P1;SDS_P2;PMS_P1;PMS_P2;Temp;Humidity;BMP_temperature;BMP_pressure;BME280_temperature;BME280_humidity;BME280_pressure;Samples;Min_cycle;Max_cycle;Signal;HPM_P1;HPM_P2
2022/12/15 00:39:43;;;;;;;56.53;21.70;;;-3.30;99.90;;;;;;4385116;28;660717;-67
2022/12/15 00:42:30;;;;;;;46.43;19.93;;;-3.10;99.90;;;;;;4387305;28;660390;-68
2022/12/15 00:45:17;;;;;;;49.33;21.00;;;-3.10;99.90;;;;;;4407586;28;661791;-69
2022/12/15 00:48:04;;;;;;;52.87;20.40;;;-3.10;99.90;;;;;;4404787;28;660746;-68
2022/12/15 00:50:54;;;;;;;54.93;20.37;;;-3.00;99.90;;;;;;4389486;28;661593;-69
2022/12/15 01:21:33;;;;;;;64.33;24.07;;;-2.90;99.90;;;;;;4384405;28;661539;-69
2022/12/15 01:24:20;;;;;;;64.35;25.30;;;-2.90;99.90;;;;;;4388683;28;660634;-68
2022/12/15 01:27:08;;;;;;;65.33;24.10;;;-2.90;99.90;;;;;;4416640;28;661290;-68
2022/12/15 01:29:56;;;;;;;74.20;26.80;;;-2.80;99.90;;;;;;4396565;28;660196;-68
2022/12/15 01:32:44;;;;;;;65.83;25.97;;;-2.80;99.90;;;;;;4404778;28;662636;-68
2022/12/15 01:35:31;;;;;;;59.00;24.33;;;-2.80;99.90;;;;;;4386193;28;660590;-69
2022/12/15 01:38:18;;;;;;;69.10;25.87;;;-2.80;99.90;;;;;;4416156;28;661818;-69
2022/12/15 01:41:06;;;;;;;61.77;23.20;;;-2.80;99.90;;;;;;4389779;28;661756;-68
2022/12/15 01:43:53;;;;;;;72.83;27.53;;;-2.80;99.90;;;;;;4406512;28;660964;-68
2022/12/15 01:46:42;;;;;;;70.25;26.10;;;-2.90;99.90;;;;;;4386506;28;661713;-68
2022/12/15 01:49:29;;;;;;;65.90;23.27;;;-2.90;99.90;;;;;;4403152;28;661244;-69
2022/12/15 01:52:16;;;;;;;65.30;26.13;;;-2.80;99.90;;;;;;4380873;28;660571;-68
2022/12/15 01:55:04;;;;;;;72.93;28.03;;;-2.80;99.90;;;;;;4405402;28;661380;-68
2022/12/15 01:57:51;;;;;;;70.87;26.93;;;-2.80;99.90;;;;;;4390671;28;661948;-69
2022/12/15 02:00:38;;;;;;;67.40;27.17;;;-2.90;99.90;;;;;;4406680;28;661922;-68
2022/12/15 02:03:27;;;;;;;88.28;30.58;;;-2.90;99.90;;;;;;4384819;28;661092;-68
2022/12/15 02:06:14;;;;;;;73.67;28.87;;;-2.90;99.90;;;;;;4412471;28;660751;-69
2022/12/15 02:09:01;;;;;;;89.23;31.70;;;-3.00;99.90;;;;;;4387416;28;660619;-69
2022/12/15 02:12:08;;;;;;;75.67;31.40;;;-2.90;99.90;;;;;;4406974;28;661866;-68
2022/12/15 02:15:10;;;;;;;91.80;33.30;;;-2.90;99.90;;;;;;4360449;28;660855;-69
2022/12/15 02:18:00;;;;;;;86.43;33.33;;;-2.80;99.90;;;;;;4356755;28;661947;-67
2022/12/15 02:20:52;;;;;;;89.50;34.03;;;-2.80;99.90;;;;;;4383917;28;661583;-68
2022/12/15 02:24:06;;;;;;;95.57;35.43;;;-2.70;99.90;;;;;;4384066;28;661048;-68
2022/12/15 02:27:09;;;;;;;86.77;34.90;;;-2.70;99.90;;;;;;4389223;28;660611;-69
2022/12/15 02:30:15;;;;;;;82.17;32.10;;;-2.80;99.90;;;;;;4387427;28;660841;-69
2022/12/15 02:33:12;;;;;;;75.33;30.13;;;-2.70;99.90;;;;;;4383972;28;660688;-69
2022/12/15 02:36:00;;;;;;;79.53;30.47;;;-2.80;99.90;;;;;;4380622;28;661488;-69
2022/12/15 02:38:47;;;;;;;93.37;35.40;;;-2.80;99.90;;;;;;4379045;28;661419;-68
2022/12/15 02:41:36;;;;;;;90.90;33.63;;;-2.70;99.90;;;;;;4406842;28;660559;-69
2022/12/15 02:44:26;;;;;;;81.53;31.70;;;-2.70;99.90;;;;;;4383955;28;663189;-69
2022/12/15 02:47:20;;;;;;;93.07;32.90;;;-2.70;99.90;;;;;;4387498;28;661948;-68
2022/12/15 02:50:19;;;;;;;90.50;34.80;;;-2.70;99.90;;;;;;4357387;28;661451;-69
2022/12/15 02:53:11;;;;;;;92.50;34.13;;;-2.70;99.90;;;;;;4359209;28;661687;-68
2022/12/15 02:56:00;;;;;;;99.10;36.20;;;-2.70;99.90;;;;;;4387502;28;661853;-68
2022/12/15 02:58:52;;;;;;;88.07;34.93;;;-2.70;99.90;;;;;;4382595;28;661288;-67
2022/12/15 03:01:41;;;;;;;88.20;31.80;;;-2.70;99.90;;;;;;4720499;28;662893;-69
2022/12/15 03:04:32;;;;;;;91.33;34.33;;;-2.80;99.90;;;;;;4514350;28;538910;-68
2022/12/15 03:07:19;;;;;;;72.17;27.97;;;-2.80;99.90;;;;;;4387331;28;661468;-68
2022/12/15 03:10:07;;;;;;;87.23;32.67;;;-2.60;99.90;;;;;;4388373;28;660400;-69
2022/12/15 03:12:54;;;;;;;63.17;23.80;;;-2.60;99.90;;;;;;4402284;28;660900;-68
2022/12/15 03:15:41;;;;;;;76.97;29.80;;;-2.60;99.90;;;;;;4385978;28;661405;-68
2022/12/15 03:18:29;;;;;;;84.47;30.20;;;-2.60;99.90;;;;;;4405989;28;661117;-68
2022/12/15 03:21:17;;;;;;;76.70;29.63;;;-2.70;99.90;;;;;;4392432;28;660804;-68
2022/12/15 03:24:04;;;;;;;79.37;29.63;;;-2.70;99.90;;;;;;4404738;28;660819;-68
2022/12/15 03:26:52;;;;;;;75.33;27.63;;;-2.70;99.90;;;;;;4387867;28;661225;-68
2022/12/15 03:29:39;;;;;;;59.67;25.47;;;-2.70;99.90;;;;;;4401165;28;660678;-68
2022/12/15 03:32:26;;;;;;;80.87;30.00;;;-2.70;99.90;;;;;;4388305;28;661058;-69
2022/12/15 03:35:13;;;;;;;68.13;25.80;;;-2.70;99.90;;;;;;4415404;28;661011;-68
2022/12/15 03:38:02;;;;;;;69.87;29.20;;;-2.70;99.90;;;;;;4386697;28;660848;-68
2022/12/15 03:40:49;;;;;;;78.28;28.98;;;-2.70;99.90;;;;;;4406043;28;660018;-68
2022/12/15 03:43:36;;;;;;;86.97;29.77;;;-2.70;99.90;;;;;;4344789;28;1122371;-68
2022/12/15 03:46:23;;;;;;;69.70;28.37;;;-2.70;99.90;;;;;;4412289;28;662686;-69
2022/12/15 03:49:11;;;;;;;78.77;30.43;;;-2.60;99.90;;;;;;4383867;28;661436;-68
2022/12/15 03:51:58;;;;;;;86.53;33.13;;;-2.70;99.90;;;;;;4408874;28;661584;-69
2022/12/15 03:54:46;;;;;;;82.27;31.93;;;-2.80;99.90;;;;;;4391411;28;660730;-67
2022/12/15 03:57:34;;;;;;;92.13;31.83;;;-2.80;99.90;;;;;;4407234;28;661404;-69
2022/12/15 04:00:21;;;;;;;90.80;32.80;;;-2.80;99.90;;;;;;4383419;28;660820;-68
2022/12/15 04:03:09;;;;;;;98.53;34.00;;;-2.80;99.90;;;;;;4403447;28;660986;-68
2022/12/15 04:05:56;;;;;;;99.73;35.50;;;-2.70;99.90;;;;;;4385917;28;660594;-68
2022/12/15 04:08:43;;;;;;;92.27;32.07;;;-2.80;99.90;;;;;;4405527;28;661614;-68
2022/12/15 04:11:32;;;;;;;78.37;29.43;;;-2.70;99.90;;;;;;4383132;28;660766;-68
2022/12/15 04:14:19;;;;;;;99.70;36.30;;;-2.70;99.90;;;;;;4410500;28;660914;-68
2022/12/15 04:17:06;;;;;;;100.53;33.37;;;-2.80;99.90;;;;;;4380508;28;661105;-69
2022/12/15 04:20:09;;;;;;;101.43;35.17;;;-2.80;99.90;;;;;;4401760;28;662527;-68
2022/12/15 04:22:56;;;;;;;107.33;36.57;;;-2.70;99.90;;;;;;4380171;28;661906;-68
2022/12/15 05:33:32;;;;;;;77.23;28.50;;;-2.60;99.90;;;;;;4359543;28;660984;-68
2022/12/15 05:36:20;;;;;;;90.43;32.33;;;-2.60;99.90;;;;;;4401616;28;662873;-68
2022/12/15 05:39:07;;;;;;;71.97;28.13;;;-2.60;99.90;;;;;;4415480;28;660286;-69
2022/12/15 05:41:55;;;;;;;85.27;32.20;;;-2.60;99.90;;;;;;4399917;28;660559;-68
2022/12/15 05:44:43;;;;;;;84.80;31.60;;;-2.60;99.90;;;;;;4411477;28;661904;-68
2022/12/15 05:47:32;;;;;;;87.25;31.70;;;-2.60;99.90;;;;;;4395672;28;661395;-68
2022/12/15 05:50:19;;;;;;;78.53;29.83;;;-2.60;99.90;;;;;;4410517;28;661087;-68
2022/12/15 05:53:06;;;;;;;81.03;29.03;;;-2.60;99.90;;;;;;4389487;28;660958;-69
2022/12/15 05:55:53;;;;;;;83.20;30.77;;;-2.70;99.90;;;;;;4413520;28;660762;-69
2022/12/15 05:58:40;;;;;;;89.72;32.20;;;-2.70;99.90;;;;;;4388124;28;660873;-68
2022/12/15 06:01:28;;;;;;;79.13;30.30;;;-2.70;99.90;;;;;;4410770;28;661934;-69
2022/12/15 06:04:16;;;;;;;74.93;30.40;;;-2.70;99.90;;;;;;4390579;28;660919;-69
2022/12/15 06:07:04;;;;;;;80.63;31.00;;;-2.70;99.90;;;;;;4408136;28;660927;-69
2022/12/15 06:09:51;;;;;;;83.50;32.10;;;-2.60;99.90;;;;;;4388272;28;661428;-69
2022/12/15 06:12:38;;;;;;;80.93;30.13;;;-2.60;99.90;;;;;;4412653;28;660818;-69
2022/12/15 06:15:25;;;;;;;77.87;30.60;;;-2.60;99.90;;;;;;4386652;28;660591;-69
2022/12/15 06:18:13;;;;;;;87.53;32.20;;;-2.80;99.90;;;;;;4410472;28;661439;-68
2022/12/15 06:21:03;;;;;;;80.60;28.90;;;-2.80;99.90;;;;;;4403712;28;660704;-68
2022/12/15 06:23:50;;;;;;;86.67;31.27;;;-2.70;99.90;;;;;;4401502;28;661274;-67
2022/12/15 06:26:39;;;;;;;90.20;31.93;;;-2.80;99.90;;;;;;4407579;28;660879;-65
2022/12/15 06:29:26;;;;;;;94.17;34.43;;;-2.90;99.90;;;;;;4392412;28;661787;-66
2022/12/15 06:32:13;;;;;;;99.53;33.63;;;-2.90;99.90;;;;;;4413620;28;660848;-65
2022/12/15 06:35:00;;;;;;;85.30;31.20;;;-2.80;99.90;;;;;;4387872;28;660957;-67
2022/12/15 06:37:49;;;;;;;97.80;34.60;;;-2.80;99.90;;;;;;4412235;28;661965;-65
2022/12/15 06:40:36;;;;;;;84.93;32.23;;;-2.80;99.90;;;;;;4386336;28;660863;-66
2022/12/15 06:43:23;;;;;;;78.30;28.47;;;-2.80;99.90;;;;;;4406315;28;661980;-65
2022/12/15 06:46:10;;;;;;;95.33;33.73;;;-2.70;99.90;;;;;;4390526;28;660820;-66
2022/12/15 06:48:58;;;;;;;83.87;33.87;;;-2.70;99.90;;;;;;4402660;28;662117;-66
2022/12/15 06:51:45;;;;;;;82.47;33.53;;;-2.80;99.90;;;;;;4397932;28;662603;-66
2022/12/15 06:54:34;;;;;;;93.43;34.00;;;-2.70;99.90;;;;;;4419541;28;660337;-65
2022/12/15 06:57:21;;;;;;;92.93;33.30;;;-2.80;99.90;;;;;;4389985;28;661586;-65
2022/12/15 07:00:09;;;;;;;88.40;35.47;;;-2.80;99.90;;;;;;4411082;28;661694;-66
2022/12/15 07:02:56;;;;;;;88.37;34.43;;;-2.70;99.90;;;;;;4861443;28;563773;-65
2022/12/15 07:05:44;;;;;;;90.30;34.10;;;-2.80;99.90;;;;;;4408905;28;661723;-65
2022/12/15 07:08:31;;;;;;;93.63;34.67;;;-2.90;99.90;;;;;;4391736;28;660720;-67
2022/12/15 07:11:20;;;;;;;92.47;35.20;;;-2.80;99.90;;;;;;4406818;28;661362;-65
2022/12/15 07:14:07;;;;;;;92.27;34.80;;;-2.80;99.90;;;;;;4384893;28;661108;-65
2022/12/15 07:16:54;;;;;;;77.40;32.13;;;-2.70;99.90;;;;;;4416577;28;661594;-65
2022/12/15 07:19:41;;;;;;;88.57;36.23;;;-2.70;99.90;;;;;;4387738;28;661733;-65
2022/12/15 07:22:28;;;;;;;84.50;34.53;;;-2.70;99.90;;;;;;4404945;28;661049;-66
2022/12/15 07:25:16;;;;;;;91.67;35.87;;;-2.70;99.90;;;;;;4384933;28;661067;-65
2022/12/15 07:28:05;;;;;;;91.37;35.27;;;-2.70;99.90;;;;;;4406445;28;661491;-65
2022/12/15 07:30:52;;;;;;;92.53;34.33;;;-2.60;99.90;;;;;;4389653;28;660906;-65
2022/12/15 07:33:39;;;;;;;92.87;35.43;;;-2.60;99.90;;;;;;4406646;28;660516;-66
2022/12/15 07:36:27;;;;;;;83.70;33.53;;;-2.60;99.90;;;;;;4393057;28;661992;-65
2022/12/15 07:39:14;;;;;;;90.17;35.30;;;-2.70;99.90;;;;;;4409056;28;661332;-65
2022/12/15 07:42:02;;;;;;;90.30;35.73;;;-2.60;99.90;;;;;;4392665;28;661534;-66
2022/12/15 07:44:50;;;;;;;85.50;32.93;;;-2.60;99.90;;;;;;4410232;28;661633;-65
2022/12/15 07:47:37;;;;;;;83.57;32.40;;;-2.60;99.90;;;;;;4382575;28;661454;-65
2022/12/15 07:50:25;;;;;;;79.90;31.73;;;-2.70;99.90;;;;;;4407504;28;662179;-65
2022/12/15 07:53:12;;;;;;;80.00;32.70;;;-2.60;99.90;;;;;;4384994;28;662236;-65
2022/12/15 07:55:59;;;;;;;83.90;32.67;;;-2.50;99.90;;;;;;4406331;28;660302;-66
2022/12/15 07:58:46;;;;;;;74.57;28.60;;;-2.40;99.90;;;;;;4391864;28;660555;-65
2022/12/15 08:01:35;;;;;;;74.40;29.73;;;-2.60;99.90;;;;;;4405380;28;661096;-65
2022/12/15 08:04:22;;;;;;;75.63;29.60;;;-2.70;99.90;;;;;;4383337;28;662229;-66
2022/12/15 08:07:10;;;;;;;68.43;27.47;;;-2.60;99.90;;;;;;4399843;28;661328;-66
2022/12/15 08:09:57;;;;;;;67.53;25.83;;;-2.80;99.90;;;;;;4383483;28;661416;-66
2022/12/15 08:12:44;;;;;;;63.67;27.07;;;-2.80;99.90;;;;;;4407714;28;660973;-65
2022/12/15 08:15:31;;;;;;;64.20;26.15;;;-2.60;99.90;;;;;;4375893;28;660710;-65
2022/12/15 08:18:20;;;;;;;74.73;27.93;;;-2.70;99.90;;;;;;4407498;28;661929;-67
2022/12/15 08:21:08;;;;;;;75.20;28.87;;;-2.70;99.90;;;;;;4384741;28;662164;-65
2022/12/15 08:23:55;;;;;;;74.27;26.67;;;-2.90;99.90;;;;;;4396165;28;661798;-66
2022/12/15 08:26:43;;;;;;;72.17;28.70;;;-2.80;99.90;;;;;;4412608;28;660990;-66
2022/12/15 08:29:30;;;;;;;73.50;29.30;;;-2.80;99.90;;;;;;4392242;28;661058;-66
2022/12/15 08:32:17;;;;;;;70.23;27.07;;;-2.80;99.90;;;;;;4409803;28;660250;-66
2022/12/15 08:35:06;;;;;;;65.00;27.07;;;-2.80;99.90;;;;;;4406621;28;661342;-66
2022/12/15 08:37:54;;;;;;;72.63;28.70;;;-2.50;99.90;;;;;;4381750;28;661089;-66
2022/12/15 08:40:41;;;;;;;73.53;28.67;;;-2.40;99.90;;;;;;4385502;28;660666;-67
2022/12/15 08:43:28;;;;;;;72.60;28.42;;;-2.40;99.90;;;;;;4411545;28;661565;-67
2022/12/15 08:46:16;;;;;;;72.20;28.63;;;-2.30;99.90;;;;;;4391383;28;660865;-67
2022/12/15 08:49:03;;;;;;;69.70;26.10;;;-2.20;99.90;;;;;;4407556;28;661909;-66
2022/12/15 08:51:52;;;;;;;77.43;28.92;;;-2.40;99.90;;;;;;4398108;28;660732;-67
2022/12/15 08:54:39;;;;;;;75.37;28.83;;;-2.20;99.90;;;;;;4408435;28;660496;-66
2022/12/15 08:57:26;;;;;;;75.30;29.13;;;-2.10;99.90;;;;;;4387397;28;660819;-66
2022/12/15 09:00:14;;;;;;;71.43;27.93;;;-1.90;99.90;;;;;;4426895;28;661559;-66
2022/12/15 09:03:02;;;;;;;68.03;27.77;;;-1.90;99.90;;;;;;4840485;28;537335;-67
2022/12/15 09:05:49;;;;;;;70.63;30.03;;;-2.00;99.90;;;;;;4413546;28;660377;-66
2022/12/15 09:08:37;;;;;;;74.43;28.58;;;-2.10;99.90;;;;;;4386950;28;660698;-66
2022/12/15 09:11:25;;;;;;;72.23;29.23;;;-2.10;99.90;;;;;;4404620;28;660587;-67
2022/12/15 09:14:13;;;;;;;72.97;29.67;;;-2.00;99.90;;;;;;4410967;28;661809;-66
2022/12/15 09:17:00;;;;;;;72.07;30.17;;;-2.00;99.90;;;;;;4384965;28;660749;-67
2022/12/15 09:19:47;;;;;;;71.17;28.03;;;-1.90;99.90;;;;;;4414505;28;660058;-66
2022/12/15 09:22:35;;;;;;;70.03;28.83;;;-2.00;99.90;;;;;;4410001;28;660923;-66
2022/12/15 09:25:24;;;;;;;73.67;29.03;;;-1.90;99.90;;;;;;4384859;28;661736;-66
2022/12/15 09:28:11;;;;;;;76.17;29.00;;;-1.80;99.90;;;;;;4388025;28;660711;-66
2022/12/15 09:31:02;;;;;;;72.03;27.67;;;-2.10;99.90;;;;;;4408668;28;663052;-67
2022/12/15 09:33:49;;;;;;;67.67;26.40;;;-2.10;99.90;;;;;;4384014;28;661011;-67
2022/12/15 09:36:36;;;;;;;77.53;29.60;;;-1.80;99.90;;;;;;4391407;28;660804;-66
2022/12/15 09:39:24;;;;;;;71.17;29.73;;;-1.80;99.90;;;;;;4411670;28;661367;-67
2022/12/15 09:42:22;;;;;;;74.07;28.93;;;-2.10;99.90;;;;;;4390895;28;660745;-66
2022/12/15 09:45:14;;;;;;;75.40;29.20;;;-2.00;99.90;;;;;;4380863;28;660842;-67
2022/12/15 09:48:03;;;;;;;75.80;30.83;;;-1.90;99.90;;;;;;4358104;28;661408;-66
2022/12/15 09:50:52;;;;;;;77.13;29.67;;;-2.00;99.90;;;;;;4388285;28;660869;-67
2022/12/15 09:53:39;;;;;;;74.97;30.80;;;-2.00;99.90;;;;;;4409409;28;661023;-66
2022/12/15 09:56:32;;;;;;;79.20;30.67;;;-1.80;99.90;;;;;;4386108;28;660628;-66
2022/12/15 09:59:29;;;;;;;76.57;30.83;;;-1.80;99.90;;;;;;4390280;28;661666;-66
2022/12/15 10:02:26;;;;;;;81.83;31.30;;;-1.70;99.90;;;;;;4356263;28;662192;-66
2022/12/15 10:05:16;;;;;;;85.30;32.90;;;-1.40;99.90;;;;;;4380331;28;661052;-66
2022/12/15 10:08:03;;;;;;;80.90;32.40;;;-1.20;99.90;;;;;;4382496;28;661389;-66
2022/12/15 10:10:53;;;;;;;77.75;31.00;;;-1.60;99.90;;;;;;4388068;28;660950;-67
2022/12/15 10:13:42;;;;;;;83.70;32.23;;;-1.70;99.90;;;;;;4396749;28;660723;-68
2022/12/15 10:16:34;;;;;;;84.40;32.03;;;-1.80;99.90;;;;;;4403173;28;660654;-67
2022/12/15 10:19:25;;;;;;;89.67;35.23;;;-1.90;99.90;;;;;;4389349;28;661917;-66
2022/12/15 10:22:14;;;;;;;80.33;33.20;;;-1.80;99.90;;;;;;4384739;28;660694;-66
2022/12/15 10:25:02;;;;;;;73.27;31.00;;;-1.80;99.90;;;;;;4383573;28;660630;-66
2022/12/15 10:28:03;;;;;;;80.13;31.53;;;-1.70;99.90;;;;;;4411819;28;661408;-66
2022/12/15 10:30:52;;;;;;;82.57;33.07;;;-1.70;99.90;;;;;;4361883;28;660985;-66
2022/12/15 10:33:43;;;;;;;89.73;33.67;;;-1.60;99.90;;;;;;4412450;28;660970;-67
2022/12/15 10:36:30;;;;;;;78.05;31.60;;;-1.30;99.90;;;;;;4387896;28;660991;-67
2022/12/15 10:39:17;;;;;;;89.90;33.30;;;-1.30;99.90;;;;;;4408278;28;660869;-66
2022/12/15 10:42:16;;;;;;;71.03;30.87;;;-1.50;99.90;;;;;;4404309;28;660917;-67
2022/12/15 10:45:06;;;;;;;87.90;32.73;;;-1.50;99.90;;;;;;4390069;28;661710;-67
2022/12/15 10:48:01;;;;;;;80.33;30.67;;;-1.20;99.90;;;;;;4388255;28;660937;-66
2022/12/15 10:50:49;;;;;;;73.40;30.00;;;-1.20;99.90;;;;;;4374549;28;660661;-66
2022/12/15 10:53:39;;;;;;;76.80;31.17;;;-1.20;99.90;;;;;;4390614;28;660730;-67
2022/12/15 10:56:28;;;;;;;79.87;30.93;;;-1.00;99.90;;;;;;4388110;28;662008;-66
2022/12/15 10:59:23;;;;;;;76.40;31.40;;;-1.10;99.90;;;;;;4384347;28;660908;-68
2022/12/15 11:02:35;;;;;;;82.75;31.85;;;-1.00;99.90;;;;;;4840696;28;660942;-67
2022/12/15 11:05:22;;;;;;;85.73;32.47;;;-1.00;99.90;;;;;;4367314;28;660910;-66
2022/12/15 11:08:17;;;;;;;75.70;31.83;;;-1.00;99.90;;;;;;4407846;28;660818;-66
2022/12/15 11:14:29;;;;;;;83.73;33.53;;;-1.10;99.90;;;;;;4388539;28;660692;-67
2022/12/15 11:17:17;;;;;;;92.90;35.93;;;-0.90;99.90;;;;;;4385521;28;660705;-66
2022/12/15 11:20:06;;;;;;;83.47;32.70;;;-0.60;99.90;;;;;;4397983;28;660597;-66
2022/12/15 11:22:55;;;;;;;79.87;32.77;;;-0.50;99.90;;;;;;4380302;28;661846;-66
2022/12/15 11:25:45;;;;;;;80.33;32.57;;;-0.50;99.90;;;;;;4383141;28;661802;-66
2022/12/15 11:28:36;;;;;;;89.30;33.47;;;-0.40;99.90;;;;;;4384001;28;662006;-67
2022/12/15 11:31:25;;;;;;;80.10;32.23;;;-0.30;99.90;;;;;;4384695;28;661589;-66
2022/12/15 11:34:13;;;;;;;84.07;32.77;;;-0.20;99.90;;;;;;4379474;28;662048;-67
2022/12/15 11:37:26;;;;;;;84.60;32.97;;;-0.40;99.90;;;;;;4394369;28;660827;-67
2022/12/15 11:40:35;;;;;;;85.40;32.93;;;-0.20;99.90;;;;;;4385240;28;660825;-66
2022/12/15 11:43:44;;;;;;;84.73;31.83;;;-0.10;99.90;;;;;;4356052;28;661348;-67
2022/12/15 11:46:36;;;;;;;75.70;30.30;;;-0.10;99.90;;;;;;4366003;28;660997;-66
2022/12/15 11:49:52;;;;;;;74.57;31.50;;;0.00;99.90;;;;;;4389527;28;661028;-66
2022/12/15 11:53:08;;;;;;;75.90;28.80;;;0.10;99.90;;;;;;4403690;28;660117;-67
2022/12/15 11:55:58;;;;;;;75.00;29.57;;;0.10;99.90;;;;;;4389662;28;659823;-67
2022/12/15 11:58:56;;;;;;;79.63;29.80;;;0.00;99.90;;;;;;4394722;28;659695;-67
2022/12/15 12:01:53;;;;;;;73.77;29.57;;;-0.10;99.90;;;;;;4388322;28;660029;-66
2022/12/15 12:04:43;;;;;;;71.70;28.97;;;-0.10;99.90;;;;;;4370574;28;660464;-67
2022/12/15 12:07:32;;;;;;;74.43;29.63;;;-0.40;99.90;;;;;;4386844;28;660711;-67
2022/12/15 12:10:27;;;;;;;74.80;28.83;;;-0.50;99.90;;;;;;4411338;28;660297;-66
2022/12/15 12:13:19;;;;;;;69.00;28.00;;;-0.50;99.90;;;;;;4388638;28;661229;-66
2022/12/15 12:16:23;;;;;;;76.03;29.60;;;-0.50;99.90;;;;;;4391464;28;660541;-67
2022/12/15 12:19:11;;;;;;;71.60;27.10;;;-0.30;99.90;;;;;;4376705;28;660930;-67
2022/12/15 12:22:00;;;;;;;67.67;26.93;;;-0.20;99.90;;;;;;4413109;28;661671;-66
2022/12/15 12:24:50;;;;;;;73.82;29.30;;;-0.30;99.90;;;;;;4388921;28;661462;-67
2022/12/15 12:27:39;;;;;;;74.23;28.70;;;-0.50;99.90;;;;;;4390386;28;662424;-67
2022/12/15 12:30:27;;;;;;;74.75;29.02;;;-0.50;99.90;;;;;;4391657;28;661542;-67
2022/12/15 12:33:21;;;;;;;65.80;25.27;;;-0.50;99.90;;;;;;4407862;28;660888;-66
2022/12/15 12:36:10;;;;;;;69.40;29.45;;;-0.50;99.90;;;;;;4385267;28;661046;-66
2022/12/15 12:38:57;;;;;;;65.20;28.03;;;-0.60;99.90;;;;;;4388140;28;661476;-66
2022/12/15 12:41:46;;;;;;;72.50;29.27;;;-0.60;99.90;;;;;;4406642;28;660821;-66
2022/12/15 12:44:34;;;;;;;83.73;30.70;;;-0.40;99.90;;;;;;4385785;28;661060;-67
2022/12/15 12:47:23;;;;;;;80.53;32.87;;;-0.40;99.90;;;;;;4391415;28;662036;-67
2022/12/15 12:50:15;;;;;;;83.30;31.80;;;-0.30;99.90;;;;;;4396862;28;661059;-67
2022/12/15 12:53:03;;;;;;;83.50;29.63;;;-0.30;99.90;;;;;;4388947;28;661231;-67
2022/12/15 12:55:50;;;;;;;84.13;30.13;;;-0.20;99.90;;;;;;4396728;28;660775;-68
2022/12/15 12:58:38;;;;;;;76.57;30.80;;;-0.20;99.90;;;;;;4416764;28;661691;-66
2022/12/15 13:01:26;;;;;;;77.40;29.90;;;-0.60;99.90;;;;;;4690619;28;660524;-67
2022/12/15 13:04:34;;;;;;;74.53;30.80;;;-0.80;99.90;;;;;;4576165;28;539063;-66
2022/12/15 13:07:33;;;;;;;75.07;29.97;;;-0.80;99.90;;;;;;4384388;28;660625;-67
2022/12/15 13:10:21;;;;;;;80.03;29.90;;;-0.80;99.90;;;;;;4393297;28;661102;-67
2022/12/15 13:13:16;;;;;;;71.87;29.50;;;-0.60;99.90;;;;;;4407677;28;661272;-66
2022/12/15 13:16:05;;;;;;;80.80;29.50;;;-0.50;99.90;;;;;;4380641;28;660571;-67
2022/12/15 13:19:02;;;;;;;75.70;29.77;;;-0.40;99.90;;;;;;4384424;28;661903;-68
2022/12/15 13:21:55;;;;;;;77.33;31.17;;;-0.50;99.90;;;;;;4375454;28;661168;-67
2022/12/15 13:24:46;;;;;;;83.37;31.40;;;-0.70;99.90;;;;;;4391732;28;660633;-66
2022/12/15 13:27:35;;;;;;;74.95;30.30;;;-0.80;99.90;;;;;;4381734;28;662232;-67
2022/12/15 13:30:22;;;;;;;79.67;31.40;;;-0.90;99.90;;;;;;4383169;28;661994;-67
2022/12/15 13:33:17;;;;;;;79.90;31.67;;;-0.80;99.90;;;;;;4404721;28;660467;-66
2022/12/15 13:36:05;;;;;;;75.50;31.35;;;-0.90;99.90;;;;;;4383787;28;661045;-67
2022/12/15 13:38:53;;;;;;;77.33;32.70;;;-1.00;99.90;;;;;;4379921;28;661883;-66
2022/12/15 13:41:43;;;;;;;91.82;33.03;;;-1.00;99.90;;;;;;4393865;28;660905;-67
2022/12/15 13:44:31;;;;;;;83.72;31.98;;;-1.10;99.90;;;;;;4396230;28;661790;-67
2022/12/15 13:47:22;;;;;;;86.83;31.70;;;-1.30;99.90;;;;;;4406039;28;661524;-67
2022/12/15 13:50:13;;;;;;;80.20;32.27;;;-1.20;99.90;;;;;;4385183;28;660641;-66
2022/12/15 13:53:02;;;;;;;85.97;31.77;;;-1.20;99.90;;;;;;4364370;28;661959;-67
2022/12/15 13:56:08;;;;;;;76.40;29.70;;;-1.20;99.90;;;;;;4408726;28;660898;-67
2022/12/15 13:59:00;;;;;;;77.87;28.80;;;-1.20;99.90;;;;;;4360148;28;660914;-66
2022/12/15 14:01:48;;;;;;;79.30;30.67;;;-1.40;99.90;;;;;;4388837;28;660644;-66
2022/12/15 14:04:36;;;;;;;81.47;31.20;;;-1.50;99.90;;;;;;4392617;28;660980;-66
2022/12/15 14:07:23;;;;;;;85.80;32.47;;;-1.50;99.90;;;;;;4408879;28;660630;-67
2022/12/15 14:10:17;;;;;;;89.13;32.53;;;-1.50;99.90;;;;;;4393252;28;660766;-68
2022/12/15 14:13:08;;;;;;;83.13;30.63;;;-1.50;99.90;;;;;;4392046;28;660477;-67
2022/12/15 14:15:58;;;;;;;82.90;30.70;;;-1.50;99.90;;;;;;4389511;28;660803;-67
2022/12/15 14:18:45;;;;;;;75.90;29.40;;;-1.50;99.90;;;;;;4383814;28;660665;-67
2022/12/15 14:21:33;;;;;;;81.47;30.90;;;-1.60;99.90;;;;;;4405825;28;661385;-67
2022/12/15 14:24:28;;;;;;;94.27;35.47;;;-1.80;99.90;;;;;;4397537;28;660521;-67
2022/12/15 14:27:22;;;;;;;89.17;34.83;;;-1.70;99.90;;;;;;4361667;28;660820;-67
2022/12/15 14:30:18;;;;;;;88.77;34.80;;;-1.70;99.90;;;;;;4381216;28;661382;-67
2022/12/15 14:33:09;;;;;;;86.77;35.27;;;-1.70;99.90;;;;;;4355234;28;660922;-66
2022/12/15 14:35:56;;;;;;;100.47;38.50;;;-1.80;99.90;;;;;;4382735;28;660498;-67
2022/12/15 14:38:45;;;;;;;95.17;38.13;;;-1.90;99.90;;;;;;4408589;28;662112;-66
2022/12/15 14:41:33;;;;;;;113.60;41.60;;;-1.90;99.90;;;;;;4383293;28;661952;-67
2022/12/15 14:44:24;;;;;;;218.27;69.10;;;-1.90;99.90;;;;;;4378838;28;661934;-68
2022/12/15 14:47:17;;;;;;;206.57;70.40;;;-1.90;99.90;;;;;;4371474;28;662348;-67
2022/12/15 14:50:06;;;;;;;197.97;58.70;;;-1.90;99.90;;;;;;4370055;28;661284;-67
2022/12/15 14:52:55;;;;;;;244.30;67.40;;;-1.90;99.90;;;;;;4365875;28;662269;-67
2022/12/15 14:55:42;;;;;;;177.00;52.35;;;-1.90;99.90;;;;;;4365933;28;662652;-67
2022/12/15 14:58:31;;;;;;;126.93;44.77;;;-2.00;99.90;;;;;;4389762;28;661747;-68
2022/12/15 15:01:23;;;;;;;114.70;42.73;;;-2.00;99.90;;;;;;4652548;28;662177;-67
2022/12/15 15:04:23;;;;;;;138.23;48.37;;;-2.10;99.90;;;;;;4558060;28;539161;-67
2022/12/15 15:07:17;;;;;;;133.23;50.17;;;-2.00;99.90;;;;;;4357308;28;661876;-68
2022/12/15 15:10:08;;;;;;;116.60;44.50;;;-2.00;99.90;;;;;;4367007;28;661659;-67
2022/12/15 15:12:55;;;;;;;131.10;49.65;;;-2.00;99.90;;;;;;4353540;28;661905;-67
2022/12/15 15:15:42;;;;;;;141.40;53.43;;;-1.90;99.90;;;;;;4391070;28;662799;-66
2022/12/15 15:18:30;;;;;;;147.67;57.30;;;-2.00;99.90;;;;;;4382709;28;661807;-68
2022/12/15 15:21:19;;;;;;;166.63;59.80;;;-2.00;99.90;;;;;;4396039;28;662405;-67
2022/12/15 15:24:22;;;;;;;159.70;60.07;;;-2.00;99.90;;;;;;4372775;28;661525;-67
2022/12/15 15:27:24;;;;;;;164.47;60.57;;;-2.00;99.90;;;;;;4370958;28;661738;-66
2022/12/15 15:30:21;;;;;;;156.30;55.90;;;-2.00;99.90;;;;;;4374471;28;661974;-66
2022/12/15 15:33:09;;;;;;;139.10;52.20;;;-2.00;99.90;;;;;;4369854;28;661967;-67
2022/12/15 15:35:57;;;;;;;140.43;53.40;;;-1.90;99.90;;;;;;4373578;28;661942;-66
2022/12/15 15:38:45;;;;;;;129.90;50.10;;;-1.90;99.90;;;;;;4389488;28;662153;-67
2022/12/15 15:41:34;;;;;;;125.40;46.07;;;-1.90;99.90;;;;;;4393390;28;662943;-67
2022/12/15 15:44:21;;;;;;;114.67;42.60;;;-2.00;99.90;;;;;;4370659;28;662080;-66
2022/12/15 15:47:16;;;;;;;122.47;47.40;;;-2.00;99.90;;;;;;4397784;28;662160;-66
2022/12/15 15:50:03;;;;;;;123.38;45.67;;;-2.00;99.90;;;;;;4366817;28;661805;-67
2022/12/15 15:52:51;;;;;;;124.27;47.30;;;-1.90;99.90;;;;;;4372070;28;661896;-66
2022/12/15 15:55:38;;;;;;;130.73;48.22;;;-1.90;99.90;;;;;;4396401;28;662265;-68
2022/12/15 15:58:27;;;;;;;123.93;47.40;;;-1.90;99.90;;;;;;4371113;28;662521;-66
2022/12/15 16:01:14;;;;;;;125.10;48.23;;;-1.90;99.90;;;;;;4391295;28;661332;-67
2022/12/15 16:04:01;;;;;;;118.80;46.27;;;-1.90;99.90;;;;;;4376169;28;662601;-67
2022/12/15 16:06:49;;;;;;;119.73;43.80;;;-1.90;99.90;;;;;;4389484;28;662622;-67
2022/12/15 16:09:36;;;;;;;121.80;44.10;;;-2.00;99.90;;;;;;4374450;28;661708;-66
2022/12/15 16:12:26;;;;;;;122.23;44.53;;;-2.10;99.90;;;;;;4392845;28;662404;-66
2022/12/15 16:15:16;;;;;;;105.37;43.90;;;-2.10;99.90;;;;;;4367272;28;661906;-66
2022/12/15 16:18:03;;;;;;;162.18;56.20;;;-2.00;99.90;;;;;;4367824;28;663336;-67
2022/12/15 16:20:51;;;;;;;186.10;69.83;;;-2.00;99.90;;;;;;4372466;28;661502;-68
2022/12/15 16:23:38;;;;;;;204.87;73.30;;;-2.00;99.90;;;;;;4396782;28;662301;-67
2022/12/15 16:26:27;;;;;;;176.73;62.17;;;-2.00;99.90;;;;;;4374457;28;661810;-67